createdAt,value
2022-10-12T00:00:01.304Z,106.9
2022-10-12T00:10:01.675Z,106.7
2022-10-12T00:15:01.494Z,106.6
2022-10-12T00:20:01.416Z,84.3
2022-10-12T00:25:01.465Z,83.3
2022-10-12T00:30:01.404Z,80.8
2022-10-12T00:35:01.375Z,77.2
2022-10-12T00:40:02.405Z,74.5
2022-10-12T00:45:01.488Z,74.0
2022-10-12T00:50:01.615Z,72.9
2022-10-12T00:55:01.559Z,72.5
2022-10-12T01:00:01.318Z,72.0
2022-10-12T01:05:01.541Z,78.0
2022-10-12T01:10:01.336Z,76.4
2022-10-12T01:15:01.343Z,74.4
2022-10-12T01:20:06.703Z,73.2
2022-10-12T01:40:01.397Z,63.6
2022-10-12T01:45:01.498Z,65.1
2022-10-12T01:50:01.428Z,86.4
2022-10-12T01:55:02.219Z,79.8
2022-10-12T02:10:01.815Z,62.2
2022-10-12T02:20:02.019Z,64.9
2022-10-12T02:25:02.118Z,65.4
2022-10-12T02:35:01.754Z,85.9
2022-10-12T02:50:01.320Z,70.6
2022-10-12T02:55:02.765Z,70.3
2022-10-12T03:00:01.131Z,69.7
2022-10-12T03:05:06.203Z,69.0
2022-10-12T03:15:01.590Z,68.8
2022-10-12T03:20:01.178Z,67.9
2022-10-12T03:25:02.382Z,67.9
2022-10-12T03:30:01.343Z,67.5
2022-10-12T03:35:01.636Z,66.8
2022-10-12T03:40:01.463Z,65.3
2022-10-12T03:45:01.473Z,64.5
2022-10-12T03:50:01.245Z,62.8
2022-10-12T03:55:01.419Z,62.4
2022-10-12T04:05:01.572Z,58.8
2022-10-12T04:10:01.201Z,57.8
2022-10-12T04:20:01.114Z,56.2
2022-10-12T04:30:01.176Z,64.5
2022-10-12T04:35:01.375Z,63.6
2022-10-12T04:40:01.536Z,62.8
2022-10-12T04:45:01.316Z,63.6
2022-10-12T04:50:01.426Z,63.8
2022-10-12T04:55:01.356Z,56.0
2022-10-12T05:05:01.227Z,57.8
2022-10-12T05:10:01.164Z,57.1
2022-10-12T05:15:01.362Z,64.8
2022-10-12T05:20:01.375Z,65.7
2022-10-12T05:25:01.224Z,65.0
2022-10-12T05:30:01.071Z,64.4
2022-10-12T05:35:01.253Z,63.0
2022-10-12T05:40:01.180Z,54.8
2022-10-12T05:45:02.331Z,55.4
2022-10-12T05:50:02.098Z,56.6
2022-10-12T05:55:01.347Z,58.2
2022-10-12T06:00:01.444Z,60.6
2022-10-12T06:05:06.612Z,61.0
2022-10-12T06:10:01.164Z,59.7
2022-10-12T06:15:01.353Z,58.3
2022-10-12T06:20:06.183Z,57.8
2022-10-12T06:25:01.297Z,57.5
2022-10-12T06:30:01.419Z,57.8
2022-10-12T06:35:06.332Z,58.7
2022-10-12T06:40:01.320Z,59.6
2022-10-12T06:45:03.956Z,59.4
2022-10-12T06:55:02.302Z,60.1
2022-10-12T07:00:01.067Z,60.5
2022-10-12T07:10:01.276Z,67.4
2022-10-12T07:15:01.264Z,67.9
2022-10-12T07:20:06.073Z,69.0
2022-10-12T07:25:01.385Z,70.8
2022-10-12T07:35:01.514Z,68.4
2022-10-12T07:40:02.550Z,70.2
2022-10-12T07:45:01.128Z,72.4
2022-10-12T07:50:01.138Z,73.9
2022-10-12T07:55:01.250Z,81.8
2022-10-12T08:05:01.120Z,84.6
2022-10-12T08:10:01.274Z,84.7
2022-10-12T08:20:01.074Z,81.7
2022-10-12T08:25:01.132Z,84.0
2022-10-12T09:00:01.547Z,64.0
2022-10-12T09:05:01.100Z,65.8
2022-10-12T09:30:02.776Z,60.8
2022-10-12T10:20:01.681Z,62.4
2022-10-12T10:25:01.584Z,58.2
2022-10-12T10:40:06.678Z,68.7
2022-10-12T10:45:01.417Z,67.4
2022-10-12T10:55:01.394Z,70.8
2022-10-12T11:10:01.982Z,65.8
2022-10-12T11:15:01.833Z,67.9
2022-10-12T11:30:10.421Z,66.6
2022-10-12T11:35:01.207Z,65.2
2022-10-12T11:40:01.448Z,63.9
2022-10-12T11:45:01.222Z,61.7
2022-10-12T11:50:01.251Z,61.2
2022-10-12T11:55:01.208Z,59.5
2022-10-12T12:10:02.255Z,57.0
2022-10-12T12:35:02.190Z,53.3
2022-10-12T12:40:07.270Z,52.3
2022-10-12T13:00:01.771Z,48.2
2022-10-12T13:05:01.531Z,51.2
2022-10-12T13:20:02.081Z,52.6
2022-10-12T13:25:01.847Z,53.9
2022-10-12T13:50:01.980Z,58.2
2022-10-12T13:55:01.303Z,59.2
2022-10-12T14:00:01.518Z,67.4
2022-10-12T14:10:01.482Z,67.7
2022-10-12T14:15:01.237Z,69.7
2022-10-12T14:20:01.370Z,71.1
2022-10-12T15:00:02.810Z,55.2
2022-10-12T15:05:01.235Z,54.6
2022-10-12T15:10:01.133Z,58.2
2022-10-12T15:15:01.304Z,56.0
2022-10-12T15:20:01.293Z,53.4
2022-10-12T15:25:01.295Z,51.6
2022-10-12T15:30:01.168Z,50.3
2022-10-12T15:35:01.630Z,44.9
2022-10-12T15:50:01.795Z,40.6
2022-10-12T15:55:02.033Z,60.8
2022-10-12T16:00:01.583Z,56.5
2022-10-12T16:05:07.107Z,55.3
2022-10-12T16:10:01.644Z,54.6
2022-10-12T16:15:01.720Z,57.7
2022-10-12T16:20:01.809Z,52.6
2022-10-12T16:25:02.154Z,56.4
2022-10-12T16:30:02.068Z,56.1
2022-10-12T16:35:02.184Z,55.2
2022-10-12T16:40:01.840Z,63.8
2022-10-12T16:45:01.831Z,63.6
2022-10-12T16:50:01.618Z,61.5
2022-10-12T16:55:01.595Z,63.2
2022-10-12T17:00:01.747Z,64.4
2022-10-12T17:05:02.344Z,55.9
2022-10-12T17:10:01.580Z,56.1
2022-10-12T17:15:01.782Z,56.0
2022-10-12T17:30:01.796Z,55.2
2022-10-12T17:35:01.833Z,55.1
2022-10-12T17:40:02.690Z,55.3
2022-10-12T17:45:01.632Z,56.1
2022-10-12T17:50:01.751Z,65.2
2022-10-12T17:55:01.711Z,66.2
2022-10-12T18:00:01.568Z,70.5
2022-10-12T18:05:01.680Z,73.9
2022-10-12T18:10:02.007Z,78.0
2022-10-12T18:15:01.605Z,75.0
2022-10-12T18:20:03.058Z,80.1
2022-10-12T18:25:01.688Z,82.7
2022-10-12T18:30:01.752Z,86.8
2022-10-12T18:35:01.919Z,96.6
2022-10-12T18:40:01.607Z,105.2
2022-10-12T18:45:01.653Z,114.1
2022-10-12T18:50:01.934Z,124.8
2022-10-12T18:55:01.560Z,135.6
2022-10-12T19:00:01.564Z,139.8
2022-10-12T19:05:01.668Z,137.1
2022-10-12T19:10:01.678Z,134.3
2022-10-12T19:15:01.521Z,129.4
2022-10-12T19:20:01.432Z,141.5
2022-10-12T19:25:06.859Z,139.8
2022-10-12T19:30:06.573Z,143.4
2022-10-12T19:35:01.937Z,149.0
2022-10-12T19:40:08.241Z,153.4
2022-10-12T19:45:02.727Z,138.5
2022-10-12T19:50:01.592Z,139.7
2022-10-12T19:55:01.597Z,143.9
2022-10-12T20:00:01.551Z,145.8
2022-10-12T20:05:01.751Z,147.7
2022-10-12T20:10:01.604Z,151.8
2022-10-12T20:20:01.566Z,154.6
2022-10-12T20:25:10.084Z,160.2
2022-10-12T20:30:01.532Z,165.7
2022-10-12T20:35:01.629Z,163.9
2022-10-12T20:40:01.753Z,160.6
2022-10-12T20:45:01.765Z,155.6
2022-10-12T20:55:01.680Z,148.6
2022-10-12T21:00:01.537Z,143.3
2022-10-12T21:05:01.885Z,146.0
2022-10-12T21:10:01.759Z,157.4
2022-10-12T21:15:02.638Z,183.8
2022-10-12T21:20:01.873Z,181.4
2022-10-12T21:25:02.997Z,178.6
2022-10-12T21:30:01.570Z,179.0
2022-10-12T21:35:01.991Z,165.4
2022-10-12T21:40:01.813Z,141.4
2022-10-12T21:45:01.630Z,144.2
2022-10-12T21:50:01.791Z,146.2
2022-10-12T21:55:01.936Z,145.4
2022-10-12T22:05:02.129Z,152.5
2022-10-12T22:10:01.829Z,156.7
2022-10-12T22:15:01.548Z,154.8
2022-10-12T22:20:01.419Z,152.0
2022-10-12T22:30:01.640Z,144.6
2022-10-12T22:35:03.086Z,139.0
2022-10-12T22:40:01.422Z,132.8
2022-10-12T22:45:01.862Z,133.4
2022-10-12T22:50:02.913Z,133.7
2022-10-12T22:55:01.543Z,135.6
2022-10-12T23:00:01.850Z,134.3
2022-10-12T23:05:01.567Z,131.8
2022-10-12T23:10:01.509Z,130.9
2022-10-12T23:15:01.677Z,128.2
2022-10-12T23:20:01.466Z,129.1
2022-10-12T23:25:01.566Z,129.3
2022-10-12T23:30:01.855Z,127.2
2022-10-12T23:35:01.622Z,125.5
2022-10-12T23:40:01.818Z,127.8
2022-10-12T23:50:01.520Z,126.5
2022-10-12T23:55:06.024Z,136.9
